Time;durP1;ratioP1;P1;durP2;ratioP2;P2;SDS_P1;SDS_P2;PMS_P1;PMS_P2;Temp;Humidity;BMP_temperature;BMP_pressure;BME280_temperature;BME280_humidity;BME280_pressure;Samples;Min_cycle;Max_cycle;Signal;HPM_P1;HPM_P2
2022/08/15 00:01:10;;;;;;;8.10;5.30;;;;;;;;;;5114204;28;20038;-80
2022/08/15 00:03:40;;;;;;;10.13;5.18;;;;;;;;;;5095720;28;20419;-81
2022/08/15 00:06:09;;;;;;;6.95;4.93;;;;;;;;;;5114424;28;20031;-80
2022/08/15 00:08:36;;;;;;;7.18;4.93;;;;;;;;;;5114378;28;20051;-80
2022/08/15 00:11:07;;;;;;;8.05;5.22;;;;;;;;;;5114026;28;20027;-80
2022/08/15 00:13:33;;;;;;;6.80;4.70;;;;;;;;;;5114083;28;20022;-81
2022/08/15 00:15:59;;;;;;;7.60;5.10;;;;;;;;;;5113862;28;20322;-81
2022/08/15 00:18:26;;;;;;;5.60;4.80;;;;;;;;;;5114145;28;20457;-80
2022/08/15 00:20:53;;;;;;;10.10;5.00;;;;;;;;;;5113713;28;20520;-80
2022/08/15 00:23:22;;;;;;;5.93;5.20;;;;;;;;;;5111690;28;20194;-81
2022/08/15 00:25:48;;;;;;;5.60;4.78;;;;;;;;;;5075372;28;20029;-80
2022/08/15 00:28:15;;;;;;;7.18;4.68;;;;;;;;;;5093299;28;20024;-81
2022/08/15 00:30:41;;;;;;;6.78;4.78;;;;;;;;;;5093918;28;20024;-81
2022/08/15 00:33:08;;;;;;;9.02;4.90;;;;;;;;;;5075541;28;20089;-81
2022/08/15 00:35:37;;;;;;;8.77;5.32;;;;;;;;;;5093858;28;20028;-81
2022/08/15 00:38:04;;;;;;;7.90;4.88;;;;;;;;;;5075312;28;20500;-80
2022/08/15 00:41:38;;;;;;;9.77;5.25;;;;;;;;;;5093750;28;20035;-81
2022/08/15 00:43:17;;;;;;;5.65;5.05;;;;;;;;;;5093246;28;20028;-81
2022/08/15 00:45:43;;;;;;;7.95;5.35;;;;;;;;;;5093505;28;20099;-80
2022/08/15 00:50:54;;;;;;;9.23;5.35;;;;;;;;;;5093793;28;20082;-80
2022/08/15 00:53:20;;;;;;;7.38;5.55;;;;;;;;;;5093135;28;20039;-80
2022/08/15 00:55:46;;;;;;;7.35;5.53;;;;;;;;;;5093530;28;20102;-81
2022/08/15 00:58:12;;;;;;;7.63;5.65;;;;;;;;;;5093449;28;20118;-80
2022/08/15 01:00:40;;;;;;;8.60;5.65;;;;;;;;;;5099535;28;20131;-80
2022/08/15 01:03:09;;;;;;;8.90;5.93;;;;;;;;;;5095173;28;20065;-81
2022/08/15 01:05:36;;;;;;;11.15;5.50;;;;;;;;;;5113552;28;20026;-80
2022/08/15 01:08:02;;;;;;;6.30;5.25;;;;;;;;;;5113453;28;20020;-81
2022/08/15 01:10:28;;;;;;;8.63;5.55;;;;;;;;;;5113194;28;20023;-80
2022/08/15 01:12:54;;;;;;;6.30;5.22;;;;;;;;;;5113551;28;20023;-81
2022/08/15 01:15:21;;;;;;;10.00;5.22;;;;;;;;;;5116918;28;20028;-81
2022/08/15 01:17:47;;;;;;;7.72;5.40;;;;;;;;;;5117762;28;20023;-81
2022/08/15 01:20:22;;;;;;;7.18;5.45;;;;;;;;;;5117761;28;20188;-80
2022/08/15 01:23:09;;;;;;;10.85;5.50;;;;;;;;;;5117120;28;20553;-80
2022/08/15 01:25:38;;;;;;;6.72;5.43;;;;;;;;;;5117197;28;20421;-80
2022/08/15 01:28:04;;;;;;;7.72;5.65;;;;;;;;;;5117692;28;20030;-80
2022/08/15 01:30:40;;;;;;;7.55;6.20;;;;;;;;;;5117184;28;20173;-80
2022/08/15 01:33:06;;;;;;;8.15;6.90;;;;;;;;;;5117211;28;20027;-80
2022/08/15 01:35:32;;;;;;;7.95;7.15;;;;;;;;;;5117048;28;20077;-80
2022/08/15 01:37:59;;;;;;;15.48;7.85;;;;;;;;;;5116985;28;20051;-80
2022/08/15 01:40:36;;;;;;;10.88;7.15;;;;;;;;;;5117474;28;20042;-80
2022/08/15 01:43:03;;;;;;;12.05;8.00;;;;;;;;;;5116933;28;20119;-80
2022/08/15 01:45:30;;;;;;;11.95;7.28;;;;;;;;;;5117262;28;20461;-80
2022/08/15 01:48:06;;;;;;;12.82;7.25;;;;;;;;;;5117020;28;20086;-80
2022/08/15 01:50:51;;;;;;;10.45;7.15;;;;;;;;;;5104117;28;20028;-80
2022/08/15 01:53:23;;;;;;;9.85;6.93;;;;;;;;;;5095457;28;20121;-80
2022/08/15 01:55:52;;;;;;;10.40;7.20;;;;;;;;;;5095389;28;20055;-80
2022/08/15 01:58:19;;;;;;;10.35;7.93;;;;;;;;;;5095618;28;20020;-80
2022/08/15 02:00:55;;;;;;;15.15;8.75;;;;;;;;;;5095966;28;20024;-80
2022/08/15 02:03:33;;;;;;;10.57;8.50;;;;;;;;;;5077907;28;20024;-80
2022/08/15 02:05:59;;;;;;;16.30;8.13;;;;;;;;;;5096353;28;20355;-80
2022/08/15 02:08:26;;;;;;;9.70;7.18;;;;;;;;;;5077861;28;20469;-79
2022/08/15 02:10:52;;;;;;;9.73;7.60;;;;;;;;;;5096024;28;20047;-79
2022/08/15 02:13:18;;;;;;;7.90;7.07;;;;;;;;;;5096300;28;20024;-79
2022/08/15 02:15:45;;;;;;;10.85;8.60;;;;;;;;;;5095951;28;20046;-79
2022/08/15 02:18:11;;;;;;;11.00;8.73;;;;;;;;;;5095824;28;20381;-78
2022/08/15 02:20:37;;;;;;;16.00;8.35;;;;;;;;;;5095776;28;20028;-79
2022/08/15 02:23:03;;;;;;;11.45;8.32;;;;;;;;;;5095795;28;20446;-79
2022/08/15 02:25:29;;;;;;;12.10;8.52;;;;;;;;;;5080681;28;20028;-79
2022/08/15 02:27:56;;;;;;;13.00;9.55;;;;;;;;;;5116037;28;20437;-79
2022/08/15 02:30:23;;;;;;;14.32;9.05;;;;;;;;;;5097835;28;20049;-79
2022/08/15 02:32:49;;;;;;;14.05;11.13;;;;;;;;;;5097596;28;20020;-79
2022/08/15 02:35:16;;;;;;;13.63;10.65;;;;;;;;;;5115533;28;20023;-79
2022/08/15 02:37:43;;;;;;;16.00;11.43;;;;;;;;;;5115238;28;20043;-79
2022/08/15 02:40:11;;;;;;;16.45;12.27;;;;;;;;;;5115064;28;20024;-79
2022/08/15 02:42:38;;;;;;;16.90;11.07;;;;;;;;;;5114827;28;20415;-80
2022/08/15 02:45:06;;;;;;;18.75;12.05;;;;;;;;;;5115726;28;20121;-80
2022/08/15 02:47:34;;;;;;;21.35;11.50;;;;;;;;;;5115916;28;20550;-80
2022/08/15 02:50:01;;;;;;;15.35;11.50;;;;;;;;;;5097559;28;20460;-80
2022/08/15 02:52:28;;;;;;;35.95;13.88;;;;;;;;;;5115387;28;20035;-78
2022/08/15 02:54:54;;;;;;;16.00;7.72;;;;;;;;;;5115120;28;20100;-77
2022/08/15 02:57:20;;;;;;;21.33;7.25;;;;;;;;;;5115555;28;20032;-80
2022/08/15 02:59:46;;;;;;;11.52;5.90;;;;;;;;;;5115655;28;20028;-78
2022/08/15 03:02:12;;;;;;;11.70;6.57;;;;;;;;;;5115205;28;20030;-79
2022/08/15 03:04:38;;;;;;;15.55;6.82;;;;;;;;;;5115196;28;20023;-78
2022/08/15 03:07:05;;;;;;;9.32;7.03;;;;;;;;;;5096991;28;20024;-79
2022/08/15 03:09:31;;;;;;;10.65;6.75;;;;;;;;;;5114699;28;20031;-79
2022/08/15 03:11:57;;;;;;;11.20;7.78;;;;;;;;;;5117317;28;20049;-78
2022/08/15 03:14:24;;;;;;;15.50;10.52;;;;;;;;;;5117317;28;20024;-78
2022/08/15 03:16:50;;;;;;;14.05;9.02;;;;;;;;;;5100116;28;20047;-78
2022/08/15 03:19:25;;;;;;;14.88;10.82;;;;;;;;;;5101281;28;20181;-78
2022/08/15 03:21:51;;;;;;;16.08;10.80;;;;;;;;;;5116215;28;20035;-79
2022/08/15 03:24:19;;;;;;;18.13;11.50;;;;;;;;;;5115352;28;20493;-78
2022/08/15 03:26:46;;;;;;;21.13;16.70;;;;;;;;;;5115699;28;20048;-78
2022/08/15 03:29:13;;;;;;;18.15;14.30;;;;;;;;;;5115174;28;20020;-79
2022/08/15 03:31:39;;;;;;;21.55;15.60;;;;;;;;;;5115262;28;20077;-79
2022/08/15 03:34:05;;;;;;;22.50;16.90;;;;;;;;;;5115004;28;20139;-79
2022/08/15 03:36:31;;;;;;;19.02;15.68;;;;;;;;;;5114045;28;20833;-79
2022/08/15 03:38:57;;;;;;;23.58;17.80;;;;;;;;;;5114521;28;20106;-79
2022/08/15 03:41:23;;;;;;;22.83;18.27;;;;;;;;;;5114936;28;20476;-79
2022/08/15 03:43:49;;;;;;;24.73;17.27;;;;;;;;;;5114662;28;20019;-79
2022/08/15 03:46:17;;;;;;;23.80;18.33;;;;;;;;;;5114727;28;20020;-79
2022/08/15 03:48:47;;;;;;;24.75;19.15;;;;;;;;;;5114745;28;20041;-78
2022/08/15 03:51:15;;;;;;;23.75;18.63;;;;;;;;;;5078120;28;20039;-78
2022/08/15 03:53:43;;;;;;;24.58;19.13;;;;;;;;;;5094356;28;20104;-78
2022/08/15 03:56:10;;;;;;;23.27;16.30;;;;;;;;;;5094163;28;20020;-78
2022/08/15 03:58:37;;;;;;;21.58;17.05;;;;;;;;;;5093842;28;20024;-78
2022/08/15 04:01:05;;;;;;;27.63;18.42;;;;;;;;;;5094084;28;20043;-79
2022/08/15 04:03:31;;;;;;;28.65;20.52;;;;;;;;;;5093915;28;20031;-78
2022/08/15 04:05:59;;;;;;;24.23;18.92;;;;;;;;;;5093764;28;20027;-78
2022/08/15 04:08:26;;;;;;;25.92;19.08;;;;;;;;;;5093676;28;20043;-78
2022/08/15 04:10:53;;;;;;;22.55;17.52;;;;;;;;;;5093649;28;20066;-78
2022/08/15 04:13:23;;;;;;;19.83;15.65;;;;;;;;;;5093717;28;20027;-78
2022/08/15 04:15:49;;;;;;;23.75;17.83;;;;;;;;;;5094121;28;20028;-78
2022/08/15 04:18:15;;;;;;;23.92;17.80;;;;;;;;;;5093684;28;20399;-78
2022/08/15 04:20:42;;;;;;;22.67;15.43;;;;;;;;;;5093531;28;20028;-78
2022/08/15 04:23:08;;;;;;;25.48;15.18;;;;;;;;;;5093407;28;20051;-78
2022/08/15 04:25:39;;;;;;;24.05;16.10;;;;;;;;;;5093561;28;20107;-78
2022/08/15 04:28:05;;;;;;;21.58;14.57;;;;;;;;;;5075091;28;20034;-78
2022/08/15 04:30:34;;;;;;;19.48;15.82;;;;;;;;;;5093489;28;20020;-78
2022/08/15 04:33:09;;;;;;;24.85;14.80;;;;;;;;;;5075246;28;20032;-79
2022/08/15 04:35:35;;;;;;;26.10;15.80;;;;;;;;;;5093490;28;20024;-78
2022/08/15 04:38:01;;;;;;;21.88;16.08;;;;;;;;;;5093464;28;20024;-78
2022/08/15 04:40:30;;;;;;;25.80;16.88;;;;;;;;;;5093904;28;20442;-78
2022/08/15 04:43:00;;;;;;;23.88;15.65;;;;;;;;;;5093097;28;20035;-79
2022/08/15 04:45:30;;;;;;;25.13;15.82;;;;;;;;;;5093358;28;20369;-79
2022/08/15 04:47:56;;;;;;;20.33;15.35;;;;;;;;;;5093620;28;20103;-79
2022/08/15 04:50:23;;;;;;;23.15;16.48;;;;;;;;;;5093664;28;20020;-78
2022/08/15 04:52:52;;;;;;;24.85;16.48;;;;;;;;;;5093283;28;20032;-78
2022/08/15 04:55:19;;;;;;;21.52;15.73;;;;;;;;;;5093347;28;20048;-78
2022/08/15 04:57:45;;;;;;;22.20;15.10;;;;;;;;;;5093160;28;20035;-78
2022/08/15 05:00:14;;;;;;;24.35;16.30;;;;;;;;;;5093029;28;20031;-79
2022/08/15 05:02:40;;;;;;;28.23;17.65;;;;;;;;;;5093240;28;20020;-79
2022/08/15 05:05:07;;;;;;;27.52;16.38;;;;;;;;;;5093144;28;20107;-78
2022/08/15 05:07:34;;;;;;;23.30;16.77;;;;;;;;;;5093452;28;20012;-78
2022/08/15 05:10:00;;;;;;;24.73;17.58;;;;;;;;;;5074711;28;20055;-78
2022/08/15 05:12:28;;;;;;;30.58;18.48;;;;;;;;;;5093159;28;20027;-79
2022/08/15 05:14:54;;;;;;;29.23;18.80;;;;;;;;;;5093548;28;20028;-78
2022/08/15 05:17:20;;;;;;;29.92;20.13;;;;;;;;;;5074415;28;20524;-78
2022/08/15 05:19:46;;;;;;;30.42;20.73;;;;;;;;;;5093060;28;20036;-78
2022/08/15 05:22:12;;;;;;;38.35;23.33;;;;;;;;;;5093206;28;20032;-78
2022/08/15 05:24:38;;;;;;;29.92;21.67;;;;;;;;;;5074922;28;20393;-78
2022/08/15 05:27:05;;;;;;;30.23;21.15;;;;;;;;;;5092821;28;20017;-78
2022/08/15 05:29:31;;;;;;;34.22;23.25;;;;;;;;;;5093035;28;20020;-78
2022/08/15 05:31:58;;;;;;;33.25;20.45;;;;;;;;;;5092925;28;20028;-78
2022/08/15 05:34:24;;;;;;;31.13;19.98;;;;;;;;;;5092666;28;20020;-78
2022/08/15 05:36:50;;;;;;;28.75;19.85;;;;;;;;;;5093036;28;20036;-79
2022/08/15 05:39:16;;;;;;;31.85;22.67;;;;;;;;;;5092471;28;20032;-79
2022/08/15 05:42:02;;;;;;;28.67;20.00;;;;;;;;;;5092930;28;20055;-78
2022/08/15 05:44:48;;;;;;;33.53;20.55;;;;;;;;;;5078167;28;20036;-78
2022/08/15 05:47:21;;;;;;;30.35;20.30;;;;;;;;;;5074817;28;20385;-78
2022/08/15 05:49:47;;;;;;;;;;;;;;;;;;5099014;28;20023;-78
2022/08/15 05:52:19;;;;;;;29.23;20.92;;;;;;;;;;5112962;28;20379;-78
2022/08/15 05:54:45;;;;;;;29.92;20.25;;;;;;;;;;5112577;28;20098;-78
2022/08/15 05:57:14;;;;;;;29.10;20.13;;;;;;;;;;5094844;28;20054;-78
2022/08/15 05:59:42;;;;;;;28.25;19.25;;;;;;;;;;5113105;28;20042;-78
2022/08/15 06:02:14;;;;;;;25.73;18.20;;;;;;;;;;5116696;28;20023;-78
2022/08/15 06:04:40;;;;;;;;;;;;;;;;;;5116910;28;20073;-78
2022/08/15 06:07:10;;;;;;;24.92;15.70;;;;;;;;;;5116448;28;19904;-78
2022/08/15 06:09:45;;;;;;;24.35;16.23;;;;;;;;;;5116365;28;20089;-78
2022/08/15 06:12:15;;;;;;;22.25;15.82;;;;;;;;;;5116188;28;20023;-78
2022/08/15 06:14:45;;;;;;;20.30;15.68;;;;;;;;;;5115219;28;20035;-78
2022/08/15 06:17:18;;;;;;;24.58;16.48;;;;;;;;;;5115346;28;20031;-79
2022/08/15 06:19:46;;;;;;;20.80;14.88;;;;;;;;;;5115211;28;20034;-80
2022/08/15 06:22:15;;;;;;;24.65;14.63;;;;;;;;;;5126064;27;20023;-80
2022/08/15 06:25:00;;;;;;;22.10;15.23;;;;;;;;;;5115620;28;20032;-79
2022/08/15 06:27:46;;;;;;;16.55;12.43;;;;;;;;;;5107842;28;20016;-79
2022/08/15 06:30:17;;;;;;;16.42;11.20;;;;;;;;;;5102752;28;20016;-79
2022/08/15 06:32:51;;;;;;;16.80;12.50;;;;;;;;;;5121626;27;20019;-80
2022/08/15 06:35:32;;;;;;;19.58;12.82;;;;;;;;;;5127529;27;20019;-79
2022/08/15 06:37:58;;;;;;;23.73;11.35;;;;;;;;;;5136588;27;20764;-79
2022/08/15 06:40:24;;;;;;;20.63;11.10;;;;;;;;;;5136634;27;20028;-80
2022/08/15 06:42:50;;;;;;;20.83;11.75;;;;;;;;;;5136669;27;20023;-79
2022/08/15 06:45:21;;;;;;;21.55;11.32;;;;;;;;;;5136518;27;20358;-79
2022/08/15 06:47:48;;;;;;;18.38;10.57;;;;;;;;;;5136637;27;20050;-79
2022/08/15 06:50:19;;;;;;;17.23;9.50;;;;;;;;;;5136704;27;20016;-79
2022/08/15 06:52:59;;;;;;;17.80;9.82;;;;;;;;;;5120549;27;20424;-79
2022/08/15 06:55:27;;;;;;;14.85;9.40;;;;;;;;;;5113151;28;20050;-79
2022/08/15 06:58:00;;;;;;;13.50;8.35;;;;;;;;;;5118316;27;20043;-79
2022/08/15 07:00:35;;;;;;;15.65;7.85;;;;;;;;;;5115426;28;20028;-79
2022/08/15 07:03:15;;;;;;;11.23;6.97;;;;;;;;;;5115819;28;20073;-79
2022/08/15 07:05:41;;;;;;;16.17;7.80;;;;;;;;;;5115383;28;20011;-79
2022/08/15 07:08:28;;;;;;;11.20;6.18;;;;;;;;;;5115395;28;20012;-80
2022/08/15 07:11:02;;;;;;;9.13;6.13;;;;;;;;;;5101229;28;20035;-79
2022/08/15 07:13:45;;;;;;;8.52;5.82;;;;;;;;;;5115956;28;20441;-80
2022/08/15 07:16:18;;;;;;;10.93;5.57;;;;;;;;;;5095036;28;20424;-79
2022/08/15 07:18:46;;;;;;;10.55;5.10;;;;;;;;;;5095204;28;20028;-79
2022/08/15 07:21:17;;;;;;;6.87;5.00;;;;;;;;;;5094703;28;20381;-79
2022/08/15 07:24:01;;;;;;;11.48;4.82;;;;;;;;;;5120050;27;20051;-80
2022/08/15 07:26:31;;;;;;;6.47;4.38;;;;;;;;;;5117617;27;20031;-79
2022/08/15 07:28:59;;;;;;;8.35;4.05;;;;;;;;;;5115227;28;20086;-79
2022/08/15 07:31:36;;;;;;;9.15;3.70;;;;;;;;;;5114806;28;20062;-79
2022/08/15 07:34:07;;;;;;;11.55;3.42;;;;;;;;;;5114897;28;20038;-79
2022/08/15 07:36:34;;;;;;;8.07;3.70;;;;;;;;;;5114758;28;20023;-79
2022/08/15 07:39:00;;;;;;;7.85;4.10;;;;;;;;;;5114986;28;20023;-79
2022/08/15 07:41:29;;;;;;;8.27;3.55;;;;;;;;;;5114526;28;20405;-79
2022/08/15 07:44:00;;;;;;;13.32;3.85;;;;;;;;;;5114956;28;20016;-79
2022/08/15 07:46:36;;;;;;;7.75;3.45;;;;;;;;;;5131961;27;20015;-79
2022/08/15 07:49:07;;;;;;;5.25;3.72;;;;;;;;;;5096982;28;20086;-79
2022/08/15 07:51:44;;;;;;;8.07;3.05;;;;;;;;;;5094427;28;20031;-79
2022/08/15 07:54:28;;;;;;;6.82;3.28;;;;;;;;;;5093761;28;20036;-79
2022/08/15 07:56:58;;;;;;;5.93;3.03;;;;;;;;;;5094114;28;20028;-80
2022/08/15 07:59:35;;;;;;;6.15;2.67;;;;;;;;;;5094194;28;20027;-79
2022/08/15 08:02:10;;;;;;;4.80;2.72;;;;;;;;;;5098518;28;20023;-79
2022/08/15 08:04:36;;;;;;;4.68;2.65;;;;;;;;;;5095578;28;20059;-79
2022/08/15 08:07:13;;;;;;;5.50;2.60;;;;;;;;;;5128129;27;20031;-79
2022/08/15 08:09:43;;;;;;;5.18;2.78;;;;;;;;;;5121060;27;20368;-78
2022/08/15 08:12:16;;;;;;;3.88;2.65;;;;;;;;;;5134656;27;20109;-78
2022/08/15 08:14:42;;;;;;;4.28;2.60;;;;;;;;;;5134458;27;20027;-78
2022/08/15 08:17:13;;;;;;;6.57;2.70;;;;;;;;;;5114835;27;20362;-79
2022/08/15 08:19:51;;;;;;;4.43;2.97;;;;;;;;;;5123800;27;20019;-79
2022/08/15 08:22:20;;;;;;;3.83;2.40;;;;;;;;;;5115751;27;20106;-80
2022/08/15 08:25:01;;;;;;;4.53;2.88;;;;;;;;;;5113667;28;20099;-78
2022/08/15 08:27:46;;;;;;;7.13;3.30;;;;;;;;;;5128936;27;20023;-79
2022/08/15 08:30:16;;;;;;;6.90;2.80;;;;;;;;;;5095550;28;20446;-78
2022/08/15 08:32:52;;;;;;;3.72;2.70;;;;;;;;;;5124471;27;20011;-77
2022/08/15 08:35:36;;;;;;;5.47;3.05;;;;;;;;;;5127198;27;20039;-77
2022/08/15 08:38:34;;;;;;;6.47;2.90;;;;;;;;;;5132755;27;20031;-76
2022/08/15 08:44:01;;;;;;;9.52;2.88;;;;;;;;;;5121263;27;20037;-76
2022/08/15 08:46:28;;;;;;;6.65;3.10;;;;;;;;;;5110566;28;20392;-76
2022/08/15 08:49:14;;;;;;;4.75;2.85;;;;;;;;;;5112529;28;20031;-76
2022/08/15 08:51:43;;;;;;;9.20;2.97;;;;;;;;;;5108564;28;20040;-77
2022/08/15 08:54:18;;;;;;;8.43;3.10;;;;;;;;;;5118999;27;20031;-77
2022/08/15 08:56:48;;;;;;;9.40;3.13;;;;;;;;;;5109988;28;20035;-76
2022/08/15 08:59:23;;;;;;;6.85;2.70;;;;;;;;;;5112936;28;20441;-77
2022/08/15 09:02:00;;;;;;;7.13;2.90;;;;;;;;;;5119880;28;20554;-77
2022/08/15 09:04:35;;;;;;;10.18;3.05;;;;;;;;;;5115823;28;20026;-76
2022/08/15 09:07:03;;;;;;;5.63;2.83;;;;;;;;;;5112427;28;20016;-76
2022/08/15 09:09:38;;;;;;;4.35;2.85;;;;;;;;;;5119326;28;20015;-77
2022/08/15 09:14:53;;;;;;;7.93;3.15;;;;;;;;;;5116090;28;20039;-77
2022/08/15 09:17:20;;;;;;;6.45;3.28;;;;;;;;;;5116769;28;20023;-77
2022/08/15 09:19:50;;;;;;;4.60;3.10;;;;;;;;;;5119441;28;20086;-77
2022/08/15 09:22:17;;;;;;;8.38;3.83;;;;;;;;;;5113432;28;20357;-77
2022/08/15 09:24:43;;;;;;;5.22;3.30;;;;;;;;;;5113649;28;20020;-77
2022/08/15 09:27:35;;;;;;;6.40;4.20;;;;;;;;;;5113065;28;20031;-78
2022/08/15 09:30:05;;;;;;;8.40;3.90;;;;;;;;;;5105397;28;20032;-78
2022/08/15 09:32:41;;;;;;;7.32;4.18;;;;;;;;;;5113078;28;20031;-77
2022/08/15 09:35:07;;;;;;;10.70;4.50;;;;;;;;;;5113373;28;20373;-76
2022/08/15 09:37:44;;;;;;;6.50;3.95;;;;;;;;;;5115227;28;20031;-76
2022/08/15 09:40:29;;;;;;;7.70;4.90;;;;;;;;;;5116015;28;20019;-78
2022/08/15 09:43:04;;;;;;;10.40;4.45;;;;;;;;;;5115143;28;20024;-77
2022/08/15 09:45:37;;;;;;;12.98;4.05;;;;;;;;;;5115993;28;20484;-77
2022/08/15 09:48:03;;;;;;;8.23;3.58;;;;;;;;;;5116176;28;20012;-78
2022/08/15 09:50:52;;;;;;;8.43;3.75;;;;;;;;;;5109711;28;20012;-77
2022/08/15 09:53:18;;;;;;;8.27;3.38;;;;;;;;;;5112992;28;20469;-78
2022/08/15 09:55:46;;;;;;;6.72;3.75;;;;;;;;;;5096958;28;20067;-77
2022/08/15 09:58:14;;;;;;;15.55;4.30;;;;;;;;;;5115345;28;20019;-77
2022/08/15 10:00:52;;;;;;;7.88;3.80;;;;;;;;;;5115991;28;20023;-79
2022/08/15 10:03:21;;;;;;;6.93;4.30;;;;;;;;;;5113919;28;20028;-77
2022/08/15 10:06:01;;;;;;;10.00;5.20;;;;;;;;;;5095705;28;20502;-77
2022/08/15 10:08:47;;;;;;;13.70;6.00;;;;;;;;;;5115235;28;20016;-76
2022/08/15 10:11:13;;;;;;;10.15;5.60;;;;;;;;;;5097399;28;20027;-76
2022/08/15 10:13:39;;;;;;;8.50;5.28;;;;;;;;;;5115402;28;20031;-76
2022/08/15 10:16:26;;;;;;;13.45;5.68;;;;;;;;;;5115125;28;20073;-76
2022/08/15 10:18:52;;;;;;;10.10;5.80;;;;;;;;;;5096283;28;20389;-76
2022/08/15 10:21:20;;;;;;;10.75;5.47;;;;;;;;;;5114967;28;20054;-76
2022/08/15 10:23:48;;;;;;;11.73;5.70;;;;;;;;;;5096619;28;20024;-76
2022/08/15 10:26:25;;;;;;;12.88;5.97;;;;;;;;;;5115019;28;20638;-77
2022/08/15 10:29:09;;;;;;;14.07;5.90;;;;;;;;;;5096889;28;20024;-78
2022/08/15 10:31:43;;;;;;;9.63;5.82;;;;;;;;;;5114898;28;20429;-78
2022/08/15 10:34:17;;;;;;;11.52;6.53;;;;;;;;;;5117501;27;20069;-78
2022/08/15 10:37:02;;;;;;;11.10;5.60;;;;;;;;;;5118486;27;20615;-77
2022/08/15 10:39:36;;;;;;;11.68;5.63;;;;;;;;;;5113198;28;20011;-76
2022/08/15 10:42:02;;;;;;;12.50;5.18;;;;;;;;;;5111938;28;20024;-77
2022/08/15 10:44:28;;;;;;;13.50;6.00;;;;;;;;;;5115966;27;20026;-77
2022/08/15 10:47:16;;;;;;;10.23;6.28;;;;;;;;;;5116810;27;20020;-77
2022/08/15 10:49:50;;;;;;;12.13;6.20;;;;;;;;;;5119191;27;20330;-77
2022/08/15 10:52:22;;;;;;;11.60;6.60;;;;;;;;;;5115524;27;20031;-77
2022/08/15 10:54:48;;;;;;;;;;;;;;;;;;5106575;27;20044;-77
2022/08/15 10:57:17;;;;;;;10.25;6.30;;;;;;;;;;5093694;28;19943;-77
2022/08/15 10:59:46;;;;;;;12.02;7.00;;;;;;;;;;5093042;28;20028;-80
2022/08/15 11:02:24;;;;;;;10.80;6.72;;;;;;;;;;5095278;28;20442;-81
2022/08/15 11:04:50;;;;;;;12.40;5.93;;;;;;;;;;5115351;28;20538;-83
2022/08/15 11:07:21;;;;;;;11.63;6.63;;;;;;;;;;5105212;28;20027;-81
2022/08/15 11:09:51;;;;;;;9.23;6.18;;;;;;;;;;5076596;28;20080;-80
2022/08/15 11:12:19;;;;;;;10.70;6.53;;;;;;;;;;5095297;28;20024;-79
2022/08/15 11:14:51;;;;;;;20.77;6.68;;;;;;;;;;5086878;28;20551;-78
2022/08/15 11:17:18;;;;;;;12.48;6.65;;;;;;;;;;5093132;28;20028;-77
2022/08/15 11:19:45;;;;;;;12.55;6.68;;;;;;;;;;5093664;28;20034;-79
2022/08/15 11:22:18;;;;;;;11.18;6.72;;;;;;;;;;5094642;28;20031;-79
2022/08/15 11:24:54;;;;;;;11.68;7.55;;;;;;;;;;5097864;28;20016;-78
2022/08/15 11:27:24;;;;;;;12.05;7.72;;;;;;;;;;5094803;28;20020;-79
2022/08/15 11:29:51;;;;;;;15.55;8.32;;;;;;;;;;5095230;28;20069;-78
2022/08/15 11:32:29;;;;;;;13.02;7.45;;;;;;;;;;5095066;28;20020;-79
2022/08/15 11:34:56;;;;;;;12.13;7.22;;;;;;;;;;5087658;28;20032;-78
2022/08/15 11:37:24;;;;;;;14.43;7.82;;;;;;;;;;5095591;28;20051;-79
2022/08/15 11:39:59;;;;;;;12.63;7.55;;;;;;;;;;5094677;28;20024;-79
2022/08/15 11:42:27;;;;;;;13.20;9.07;;;;;;;;;;5094742;28;20015;-79
2022/08/15 11:44:57;;;;;;;12.95;8.82;;;;;;;;;;5095004;28;20050;-80
2022/08/15 11:47:24;;;;;;;14.68;8.88;;;;;;;;;;5094729;28;20016;-79
2022/08/15 11:49:54;;;;;;;12.60;8.63;;;;;;;;;;5094768;28;20023;-80
2022/08/15 11:52:35;;;;;;;14.45;8.75;;;;;;;;;;5105178;28;20040;-79
2022/08/15 11:55:09;;;;;;;18.88;8.32;;;;;;;;;;5114643;28;20055;-80
2022/08/15 11:57:43;;;;;;;19.33;8.23;;;;;;;;;;5095808;28;20019;-80
2022/08/15 12:00:13;;;;;;;11.80;7.68;;;;;;;;;;5094274;28;20381;-80
2022/08/15 12:02:39;;;;;;;12.13;8.23;;;;;;;;;;5094794;28;20074;-79
2022/08/15 12:05:16;;;;;;;19.77;8.98;;;;;;;;;;5094576;28;20024;-78
2022/08/15 12:07:44;;;;;;;13.88;8.43;;;;;;;;;;5076023;28;20020;-78
2022/08/15 12:10:21;;;;;;;20.08;8.38;;;;;;;;;;5094012;28;20039;-80
2022/08/15 12:12:49;;;;;;;22.63;9.60;;;;;;;;;;5094772;28;20508;-77
2022/08/15 12:15:18;;;;;;;17.10;8.98;;;;;;;;;;5094183;28;20070;-81
2022/08/15 12:18:03;;;;;;;12.25;8.48;;;;;;;;;;5094296;28;20102;-80
2022/08/15 12:20:46;;;;;;;17.13;8.93;;;;;;;;;;5076353;28;20078;-80
2022/08/15 12:23:39;;;;;;;14.93;8.90;;;;;;;;;;5094322;28;20030;-80
2022/08/15 12:26:07;;;;;;;15.95;8.82;;;;;;;;;;5090013;28;20082;-79
2022/08/15 12:28:34;;;;;;;13.15;7.65;;;;;;;;;;5093859;28;20430;-80
2022/08/15 12:31:02;;;;;;;17.27;8.77;;;;;;;;;;5076104;28;20487;-80
2022/08/15 12:33:31;;;;;;;13.93;8.93;;;;;;;;;;5093868;28;20028;-80
2022/08/15 12:35:57;;;;;;;17.95;9.68;;;;;;;;;;5093360;28;20747;-76
2022/08/15 12:38:23;;;;;;;16.90;8.95;;;;;;;;;;5093252;28;20024;-76
2022/08/15 12:40:50;;;;;;;18.92;8.98;;;;;;;;;;5092958;28;20043;-76
2022/08/15 12:43:16;;;;;;;18.50;8.90;;;;;;;;;;5093111;28;20062;-76
2022/08/15 12:45:42;;;;;;;15.88;9.55;;;;;;;;;;5093420;28;20070;-76
2022/08/15 12:48:20;;;;;;;18.88;9.55;;;;;;;;;;5092890;28;20032;-76
2022/08/15 12:50:46;;;;;;;19.60;8.93;;;;;;;;;;5079484;28;20028;-76
2022/08/15 12:53:12;;;;;;;13.90;9.15;;;;;;;;;;5072958;28;20029;-80
2022/08/15 12:55:43;;;;;;;16.05;8.60;;;;;;;;;;5096456;28;20444;-80
2022/08/15 12:58:10;;;;;;;15.85;10.18;;;;;;;;;;5134070;28;20030;-80
2022/08/15 13:00:36;;;;;;;17.45;10.25;;;;;;;;;;5115155;28;20024;-80
2022/08/15 13:03:15;;;;;;;14.35;9.73;;;;;;;;;;5113455;28;20026;-80
2022/08/15 13:05:42;;;;;;;19.08;10.45;;;;;;;;;;5093398;28;20350;-80
2022/08/15 13:08:09;;;;;;;14.75;9.90;;;;;;;;;;5091598;28;20024;-80
2022/08/15 13:10:35;;;;;;;15.40;9.40;;;;;;;;;;5096719;28;20069;-81
2022/08/15 13:13:01;;;;;;;15.20;9.43;;;;;;;;;;5096543;28;20043;-81
2022/08/15 13:15:27;;;;;;;18.25;9.65;;;;;;;;;;5096556;28;20100;-80
2022/08/15 13:17:55;;;;;;;18.58;9.98;;;;;;;;;;5096509;28;20031;-81
2022/08/15 13:25:51;;;;;;;13.02;8.20;;;;;;;;;;5115449;28;20046;-82
2022/08/15 13:28:18;;;;;;;14.80;8.15;;;;;;;;;;5116684;28;20393;-81
2022/08/15 13:30:44;;;;;;;15.25;8.18;;;;;;;;;;5116992;28;20020;-81
2022/08/15 13:33:10;;;;;;;11.48;7.05;;;;;;;;;;5116879;28;20431;-81
2022/08/15 13:35:36;;;;;;;12.60;7.20;;;;;;;;;;5118848;27;20019;-82
2022/08/15 13:38:02;;;;;;;17.45;7.13;;;;;;;;;;5137637;27;20051;-82
2022/08/15 13:40:28;;;;;;;15.32;8.00;;;;;;;;;;5137445;27;20148;-82
2022/08/15 13:42:55;;;;;;;7.90;6.72;;;;;;;;;;5137417;27;20035;-82
2022/08/15 13:45:21;;;;;;;13.55;7.50;;;;;;;;;;5137674;27;20126;-82
2022/08/15 13:47:51;;;;;;;10.20;6.00;;;;;;;;;;5120278;27;20020;-83
2022/08/15 13:50:17;;;;;;;9.75;6.22;;;;;;;;;;5104739;28;20020;-86
2022/08/15 13:52:43;;;;;;;14.30;7.32;;;;;;;;;;5099075;28;20424;-84
2022/08/15 13:55:09;;;;;;;10.85;6.82;;;;;;;;;;5110734;28;20414;-82
2022/08/15 13:57:35;;;;;;;9.05;6.20;;;;;;;;;;5078591;28;20024;-84
2022/08/15 14:00:06;;;;;;;8.70;5.45;;;;;;;;;;5096673;28;20027;-84
2022/08/15 14:02:32;;;;;;;8.98;5.88;;;;;;;;;;5096650;28;20537;-84
2022/08/15 14:04:59;;;;;;;8.90;5.35;;;;;;;;;;5089264;28;20020;-83
2022/08/15 14:07:26;;;;;;;11.68;5.00;;;;;;;;;;5081240;28;20015;-83
2022/08/15 14:09:52;;;;;;;9.35;4.18;;;;;;;;;;5096460;28;20526;-83
2022/08/15 14:12:18;;;;;;;10.20;4.45;;;;;;;;;;5096238;28;20024;-84
2022/08/15 14:14:45;;;;;;;7.18;4.03;;;;;;;;;;5096507;28;20027;-81
2022/08/15 14:17:11;;;;;;;9.77;3.75;;;;;;;;;;5112887;28;20055;-80
2022/08/15 14:19:38;;;;;;;11.55;4.72;;;;;;;;;;5082154;28;20519;-81
2022/08/15 14:22:05;;;;;;;9.27;3.67;;;;;;;;;;5098553;28;20039;-81
2022/08/15 14:24:32;;;;;;;9.00;5.60;;;;;;;;;;5104619;28;20034;-81
2022/08/15 14:26:58;;;;;;;9.27;4.88;;;;;;;;;;5120324;28;20016;-81
2022/08/15 14:29:27;;;;;;;11.35;4.90;;;;;;;;;;5118303;28;20019;-81
2022/08/15 14:31:53;;;;;;;10.48;4.85;;;;;;;;;;5096363;28;20024;-82
2022/08/15 14:34:20;;;;;;;11.13;5.10;;;;;;;;;;5105013;28;20028;-81
2022/08/15 14:36:47;;;;;;;9.70;4.40;;;;;;;;;;5099706;28;20034;-81
2022/08/15 14:39:15;;;;;;;8.48;4.90;;;;;;;;;;5116676;28;20530;-79
2022/08/15 14:41:44;;;;;;;12.77;4.93;;;;;;;;;;5098585;28;20431;-82
2022/08/15 14:44:12;;;;;;;8.40;4.60;;;;;;;;;;5117518;28;20023;-80
2022/08/15 14:46:39;;;;;;;12.90;5.35;;;;;;;;;;5118179;28;20377;-81
2022/08/15 14:49:06;;;;;;;7.60;5.38;;;;;;;;;;5098127;28;20032;-81
2022/08/15 14:51:32;;;;;;;8.40;4.35;;;;;;;;;;5075502;28;20021;-82
2022/08/15 14:54:00;;;;;;;7.63;4.30;;;;;;;;;;5075382;28;20023;-82
2022/08/15 14:56:28;;;;;;;7.55;4.25;;;;;;;;;;5074758;28;20064;-82
2022/08/15 14:58:54;;;;;;;9.93;5.25;;;;;;;;;;5075220;28;20024;-82
2022/08/15 15:01:22;;;;;;;13.38;6.05;;;;;;;;;;5085387;28;20031;-82